createdAt,value
2022-09-24T00:02:14.028Z,22.80
2022-09-24T00:04:42.109Z,22.80
2022-09-24T00:07:10.097Z,22.80
2022-09-24T00:09:38.192Z,22.80
2022-09-24T00:12:06.248Z,22.60
2022-09-24T00:14:35.649Z,22.40
2022-09-24T00:17:03.642Z,22.50
2022-09-24T00:19:31.674Z,22.60
2022-09-24T00:21:59.737Z,22.60
2022-09-24T00:24:53.602Z,22.70
2022-09-24T00:27:21.634Z,22.70
2022-09-24T00:29:51.120Z,22.70
2022-09-24T00:32:19.137Z,22.50
2022-09-24T00:34:47.764Z,22.30
2022-09-24T00:37:15.988Z,22.30
2022-09-24T00:39:43.985Z,22.20
2022-09-24T00:42:12.362Z,22.20
2022-09-24T00:44:54.898Z,22.10
2022-09-24T00:47:36.662Z,22.10
2022-09-24T00:50:20.265Z,22.10
2022-09-24T00:52:53.099Z,22.10
2022-09-24T00:55:23.656Z,22.20
2022-09-24T00:57:56.368Z,22.20
2022-09-24T01:00:26.205Z,22.30
2022-09-24T01:02:59.426Z,22.50
2022-09-24T01:05:27.607Z,22.30
2022-09-24T01:07:55.607Z,22.20
2022-09-24T01:10:49.320Z,22.20
2022-09-24T01:13:30.920Z,22.00
2022-09-24T01:16:06.035Z,21.80
2022-09-24T01:18:41.888Z,21.90
2022-09-24T01:21:26.315Z,21.70
2022-09-24T01:24:09.007Z,21.70
2022-09-24T01:26:49.250Z,22.10
2022-09-24T01:29:27.552Z,22.30
2022-09-24T01:32:05.789Z,22.50
2022-09-24T01:34:39.932Z,22.60
2022-09-24T01:37:08.639Z,22.70
2022-09-24T01:39:39.999Z,22.80
2022-09-24T01:42:10.984Z,22.80
2022-09-24T01:44:44.230Z,22.80
2022-09-24T01:47:18.417Z,22.90
2022-09-24T01:49:47.051Z,22.70
2022-09-24T01:52:20.699Z,22.50
2022-09-24T01:54:52.252Z,22.30
2022-09-24T01:57:24.607Z,22.10
2022-09-24T01:59:58.699Z,22.00
2022-09-24T02:02:31.322Z,22.10
2022-09-24T02:05:04.008Z,22.20
2022-09-24T02:07:39.608Z,22.20
2022-09-24T02:10:15.998Z,22.30
2022-09-24T02:12:47.031Z,22.50
2022-09-24T02:15:20.748Z,22.50
2022-09-24T02:17:54.583Z,22.50
2022-09-24T02:20:24.605Z,22.50
2022-09-24T02:22:55.255Z,22.50
2022-09-24T02:25:29.499Z,22.50
2022-09-24T02:27:57.678Z,22.40
2022-09-24T02:30:27.258Z,22.50
2022-09-24T02:32:58.274Z,22.50
2022-09-24T02:35:25.337Z,22.40
2022-09-24T02:37:53.362Z,22.50
2022-09-24T02:40:21.550Z,22.50
2022-09-24T02:42:50.378Z,22.40
2022-09-24T02:45:18.598Z,22.40
2022-09-24T02:47:47.961Z,22.30
2022-09-24T02:50:16.052Z,22.30
2022-09-24T02:52:44.260Z,22.50
2022-09-24T02:55:13.087Z,22.40
2022-09-24T02:57:43.414Z,22.30
2022-09-24T03:00:12.973Z,22.20
2022-09-24T03:02:41.073Z,22.20
2022-09-24T03:05:12.552Z,22.00
2022-09-24T03:07:40.605Z,21.80
2022-09-24T03:10:09.881Z,21.50
2022-09-24T03:12:38.007Z,21.60
2022-09-24T03:15:06.958Z,21.60
2022-09-24T03:17:34.993Z,21.80
2022-09-24T03:20:03.296Z,21.90
2022-09-24T03:22:32.720Z,22.00
2022-09-24T03:25:01.083Z,22.10
2022-09-24T03:27:29.078Z,22.10
2022-09-24T03:30:14.644Z,22.20
2022-09-24T03:32:42.702Z,22.30
2022-09-24T03:35:11.928Z,22.40
2022-09-24T03:37:47.050Z,22.40
2022-09-24T03:40:17.161Z,22.40
2022-09-24T03:42:45.203Z,22.40
2022-09-24T03:45:13.214Z,22.50
2022-09-24T03:47:42.748Z,22.40
2022-09-24T03:50:11.490Z,22.20
2022-09-24T03:52:41.072Z,22.20
2022-09-24T03:55:10.100Z,22.20
2022-09-24T03:57:38.105Z,22.30
2022-09-24T04:00:06.916Z,22.30
2022-09-24T04:02:36.406Z,22.40
2022-09-24T04:05:04.618Z,22.40
2022-09-24T04:07:33.489Z,22.40
2022-09-24T04:10:02.942Z,22.40
2022-09-24T04:12:31.189Z,22.50
2022-09-24T04:14:59.184Z,22.50
2022-09-24T04:17:27.852Z,22.50
2022-09-24T04:19:55.870Z,22.50
2022-09-24T04:22:23.892Z,22.60
2022-09-24T04:24:52.516Z,22.60
2022-09-24T04:27:22.507Z,22.70
2022-09-24T04:29:50.593Z,22.70
2022-09-24T04:32:18.612Z,22.70
2022-09-24T04:34:46.607Z,22.70
2022-09-24T04:37:14.650Z,22.80
2022-09-24T04:39:42.657Z,22.70
2022-09-24T04:42:10.678Z,22.80
2022-09-24T04:44:40.427Z,22.90
2022-09-24T04:47:08.802Z,23.00
2022-09-24T04:49:36.803Z,23.00
2022-09-24T04:52:05.163Z,22.80
2022-09-24T04:54:33.190Z,22.80
2022-09-24T04:57:01.229Z,22.90
2022-09-24T04:59:29.258Z,22.90
2022-09-24T05:01:58.749Z,22.90
2022-09-24T05:04:26.826Z,22.90
2022-09-24T05:06:54.954Z,22.90
2022-09-24T05:09:22.947Z,23.10
2022-09-24T05:11:51.916Z,23.10
2022-09-24T05:14:19.915Z,23.10
2022-09-24T05:16:47.932Z,23.10
2022-09-24T05:19:17.325Z,23.20
2022-09-24T05:21:45.983Z,23.20
2022-09-24T05:24:14.359Z,23.20
2022-09-24T05:26:59.797Z,23.30
2022-09-24T05:29:27.876Z,23.30
2022-09-24T05:31:56.187Z,23.40
2022-09-24T05:34:25.540Z,23.50
2022-09-24T05:36:53.667Z,23.60
2022-09-24T05:39:21.694Z,23.60
2022-09-24T05:41:50.904Z,23.70
2022-09-24T05:44:20.860Z,23.80
2022-09-24T05:46:49.176Z,23.90
2022-09-24T05:49:17.351Z,24.00
2022-09-24T05:51:49.121Z,24.20
2022-09-24T05:54:17.319Z,24.10
2022-09-24T05:56:45.837Z,24.20
2022-09-24T05:59:16.052Z,24.30
2022-09-24T06:01:45.130Z,24.40
2022-09-24T06:04:13.910Z,24.60
2022-09-24T06:06:43.470Z,24.70
2022-09-24T06:09:13.641Z,24.80
2022-09-24T06:11:42.095Z,25.00
2022-09-24T06:14:12.457Z,25.10
2022-09-24T06:16:40.568Z,25.20
2022-09-24T06:19:08.780Z,25.30
2022-09-24T06:21:36.843Z,25.50
2022-09-24T06:24:05.217Z,25.70
2022-09-24T06:26:34.566Z,25.80
2022-09-24T06:29:05.943Z,25.90
2022-09-24T06:31:34.879Z,26.00
2022-09-24T06:34:03.715Z,26.00
2022-09-24T06:36:31.713Z,26.00
2022-09-24T06:39:00.097Z,26.10
2022-09-24T06:41:29.210Z,26.10
2022-09-24T06:43:58.632Z,26.20
2022-09-24T06:46:28.628Z,26.20
2022-09-24T06:48:56.688Z,26.20
2022-09-24T06:51:24.681Z,26.20
2022-09-24T06:53:53.309Z,26.20
2022-09-24T06:56:21.311Z,26.30
2022-09-24T06:58:49.314Z,26.30
2022-09-24T07:01:18.733Z,26.30
2022-09-24T07:03:49.065Z,26.40
2022-09-24T07:06:17.050Z,26.40
2022-09-24T07:08:45.106Z,26.40
2022-09-24T07:11:15.300Z,26.40
2022-09-24T07:13:43.313Z,26.50
2022-09-24T07:16:11.445Z,26.50
2022-09-24T07:18:43.808Z,26.70
2022-09-24T07:21:11.902Z,26.50
2022-09-24T07:23:39.872Z,26.50
2022-09-24T07:26:09.236Z,26.70
2022-09-24T07:28:37.274Z,26.80
2022-09-24T07:31:05.339Z,27.00
2022-09-24T07:33:33.703Z,26.90
2022-09-24T07:36:07.282Z,26.80
2022-09-24T07:38:36.321Z,26.80
2022-09-24T07:41:06.082Z,27.10
2022-09-24T07:43:37.131Z,27.10
2022-09-24T07:46:07.582Z,27.30
2022-09-24T07:48:35.728Z,27.40
2022-09-24T07:51:05.391Z,27.40
2022-09-24T07:53:34.816Z,27.50
2022-09-24T07:56:03.285Z,27.40
2022-09-24T07:58:31.330Z,27.20
2022-09-24T08:00:59.811Z,27.50
2022-09-24T08:03:28.400Z,27.50
2022-09-24T08:05:58.672Z,27.60
2022-09-24T08:08:26.993Z,27.70
2022-09-24T08:10:56.467Z,27.60
2022-09-24T08:13:27.681Z,27.20
2022-09-24T08:16:02.748Z,26.90
2022-09-24T08:18:32.791Z,27.20
2022-09-24T08:21:05.192Z,27.50
2022-09-24T08:23:34.669Z,27.70
2022-09-24T08:26:04.421Z,27.40
2022-09-24T08:28:35.463Z,27.10
2022-09-24T08:31:08.989Z,27.40
2022-09-24T08:33:37.849Z,27.60
2022-09-24T08:36:08.159Z,27.70
2022-09-24T08:38:36.673Z,27.90
2022-09-24T08:41:21.385Z,28.10
2022-09-24T08:44:00.191Z,28.20
2022-09-24T08:46:51.130Z,28.30
2022-09-24T08:49:22.900Z,28.40
2022-09-24T08:52:02.207Z,28.40
2022-09-24T08:54:32.282Z,28.40
2022-09-24T08:57:06.801Z,28.50
2022-09-24T08:59:37.665Z,28.50
2022-09-24T09:02:27.122Z,28.50
2022-09-24T09:05:03.501Z,28.60
2022-09-24T09:07:35.952Z,28.60
2022-09-24T09:10:09.047Z,28.70
2022-09-24T09:12:41.817Z,28.80
2022-09-24T09:15:14.091Z,28.90
2022-09-24T09:17:47.173Z,28.70
2022-09-24T09:20:21.995Z,28.70
2022-09-24T09:22:51.960Z,28.80
2022-09-24T09:25:23.698Z,28.80
2022-09-24T09:27:57.480Z,28.90
2022-09-24T09:30:25.754Z,29.00
2022-09-24T09:33:16.814Z,29.10
2022-09-24T09:35:52.370Z,29.20
2022-09-24T09:38:26.423Z,29.30
2022-09-24T09:41:03.749Z,29.30
2022-09-24T09:43:34.006Z,29.20
2022-09-24T09:46:11.925Z,29.30
2022-09-24T09:48:46.231Z,29.10
2022-09-24T09:51:23.463Z,29.40
2022-09-24T09:53:59.265Z,29.50
2022-09-24T09:56:29.501Z,29.60
2022-09-24T09:59:08.168Z,29.50
2022-09-24T10:01:40.835Z,29.70
2022-09-24T10:04:29.610Z,29.80
2022-09-24T10:07:06.638Z,29.70
2022-09-24T10:09:37.584Z,29.70
2022-09-24T10:12:10.458Z,29.70
2022-09-24T10:14:39.831Z,29.70
2022-09-24T10:17:07.996Z,29.60
2022-09-24T10:19:39.029Z,29.70
2022-09-24T10:22:16.454Z,29.80
2022-09-24T10:24:45.227Z,29.90
2022-09-24T10:27:14.109Z,29.90
2022-09-24T10:30:01.501Z,29.60
2022-09-24T10:32:30.484Z,29.90
2022-09-24T10:35:01.011Z,29.70
2022-09-24T10:37:31.313Z,29.80
2022-09-24T10:40:00.463Z,29.80
2022-09-24T10:42:30.325Z,29.80
2022-09-24T10:45:02.398Z,29.90
2022-09-24T10:47:37.130Z,30.00
2022-09-24T10:50:20.628Z,29.90
2022-09-24T10:52:53.728Z,29.80
2022-09-24T10:55:47.319Z,30.00
2022-09-24T10:58:33.275Z,29.60
2022-09-24T11:01:15.436Z,29.50
2022-09-24T11:04:13.367Z,29.20
2022-09-24T11:06:53.216Z,29.50
2022-09-24T11:09:29.075Z,29.50
2022-09-24T11:12:07.946Z,29.40
2022-09-24T11:14:52.274Z,29.30
2022-09-24T11:17:33.328Z,29.50
2022-09-24T11:20:17.322Z,29.70
2022-09-24T11:22:55.687Z,29.90
2022-09-24T11:25:32.969Z,29.70
2022-09-24T11:28:17.969Z,29.90
2022-09-24T11:30:55.814Z,29.50
2022-09-24T11:33:44.092Z,30.10
2022-09-24T11:36:32.646Z,29.80
2022-09-24T11:39:22.834Z,30.00
2022-09-24T11:41:58.967Z,30.10
2022-09-24T11:44:52.189Z,30.30
2022-09-24T11:47:33.576Z,30.20
2022-09-24T11:50:18.666Z,30.20
2022-09-24T11:52:51.777Z,30.30
2022-09-24T11:55:31.656Z,30.20
2022-09-24T11:58:12.148Z,30.00
2022-09-24T12:00:45.473Z,30.30
2022-09-24T12:03:25.096Z,30.20
2022-09-24T12:06:03.199Z,30.50
2022-09-24T12:08:38.067Z,30.60
2022-09-24T12:11:12.505Z,30.70
2022-09-24T12:13:46.045Z,30.80
2022-09-24T12:16:19.549Z,30.70
2022-09-24T12:18:52.379Z,30.80
2022-09-24T12:21:28.068Z,30.90
2022-09-24T12:24:03.050Z,30.80
2022-09-24T12:26:48.019Z,31.00
2022-09-24T12:29:50.247Z,31.00
2022-09-24T12:32:40.890Z,31.00
2022-09-24T12:35:20.284Z,31.10
2022-09-24T12:37:56.222Z,31.30
2022-09-24T12:40:55.705Z,31.40
2022-09-24T12:43:31.395Z,31.40
2022-09-24T12:46:03.022Z,31.40
2022-09-24T12:48:34.707Z,31.20
2022-09-24T12:51:05.706Z,31.40
2022-09-24T12:53:38.116Z,31.40
2022-09-24T12:56:09.789Z,31.40
2022-09-24T12:58:39.747Z,31.20
2022-09-24T13:01:14.497Z,31.20
2022-09-24T13:03:47.303Z,31.40
2022-09-24T13:06:24.258Z,31.40
2022-09-24T13:08:53.730Z,31.10
2022-09-24T13:11:30.977Z,31.30
2022-09-24T13:14:02.451Z,31.50
2022-09-24T13:16:32.803Z,31.60
2022-09-24T13:19:02.263Z,31.70
2022-09-24T13:21:31.792Z,31.60
2022-09-24T13:24:12.104Z,31.70
2022-09-24T13:26:40.234Z,31.60
2022-09-24T13:29:24.178Z,31.60
2022-09-24T13:31:57.421Z,31.50
2022-09-24T13:34:28.264Z,31.30
2022-09-24T13:37:00.072Z,31.10
2022-09-24T13:39:38.801Z,31.10
2022-09-24T13:42:16.423Z,31.10
2022-09-24T13:44:47.544Z,31.10
2022-09-24T13:47:24.071Z,31.00
2022-09-24T13:49:55.880Z,31.10
2022-09-24T13:52:33.602Z,31.20
2022-09-24T13:55:09.752Z,31.10
2022-09-24T13:57:46.615Z,31.30
2022-09-24T14:00:19.811Z,31.50
2022-09-24T14:02:56.493Z,31.50
2022-09-24T14:05:25.523Z,31.60
2022-09-24T14:07:57.551Z,31.60
2022-09-24T14:10:27.045Z,31.60
2022-09-24T14:13:02.900Z,31.50
2022-09-24T14:15:30.983Z,31.50
2022-09-24T14:17:59.618Z,31.60
2022-09-24T14:20:30.406Z,31.30
2022-09-24T14:22:58.542Z,31.40
2022-09-24T14:25:30.870Z,31.40
2022-09-24T14:28:01.428Z,31.30
2022-09-24T14:30:31.480Z,31.30
2022-09-24T14:33:02.720Z,31.30
2022-09-24T14:35:32.972Z,31.20
2022-09-24T14:38:06.422Z,31.00
2022-09-24T14:40:44.480Z,31.20
2022-09-24T14:43:19.387Z,31.20
2022-09-24T14:45:48.670Z,31.10
2022-09-24T14:48:28.334Z,31.10
2022-09-24T14:50:56.583Z,31.00
2022-09-24T14:53:29.546Z,31.00
2022-09-24T14:55:58.921Z,31.00
2022-09-24T14:58:36.384Z,31.00
2022-09-24T15:01:13.711Z,30.80
2022-09-24T15:03:44.804Z,30.90
2022-09-24T15:06:21.348Z,30.90
2022-09-24T15:09:00.564Z,30.70
2022-09-24T15:11:34.674Z,30.70
2022-09-24T15:14:13.453Z,30.70
2022-09-24T15:16:41.628Z,30.70
2022-09-24T15:19:20.287Z,30.60
2022-09-24T15:21:50.413Z,30.70
2022-09-24T15:24:19.740Z,30.70
2022-09-24T15:27:00.035Z,30.80
2022-09-24T15:29:28.422Z,30.70
2022-09-24T15:31:57.794Z,30.70
2022-09-24T15:34:26.403Z,30.50
2022-09-24T15:36:58.558Z,30.60
2022-09-24T15:39:27.882Z,30.50
2022-09-24T15:41:57.316Z,30.40
2022-09-24T15:44:32.881Z,30.30
2022-09-24T15:47:02.108Z,30.40
2022-09-24T15:49:30.088Z,30.40
2022-09-24T15:52:02.687Z,30.30
2022-09-24T15:54:30.738Z,30.30
2022-09-24T15:57:00.714Z,30.20
2022-09-24T15:59:29.356Z,30.20
2022-09-24T16:02:02.173Z,30.20
2022-09-24T16:04:30.606Z,30.10
2022-09-24T16:06:58.989Z,29.90
2022-09-24T16:09:27.015Z,29.80
2022-09-24T16:11:57.465Z,29.60
2022-09-24T16:14:26.870Z,29.30
2022-09-24T16:16:55.732Z,29.30
2022-09-24T16:19:23.898Z,29.10
2022-09-24T16:21:52.419Z,29.10
2022-09-24T16:24:22.584Z,29.10
2022-09-24T16:26:52.389Z,29.00
2022-09-24T16:29:20.585Z,28.50
2022-09-24T16:31:50.037Z,28.10
2022-09-24T16:34:18.284Z,28.40
2022-09-24T16:36:46.351Z,28.20
2022-09-24T16:39:15.671Z,28.20
2022-09-24T16:41:44.395Z,28.10
2022-09-24T16:44:14.966Z,28.20
2022-09-24T16:46:43.190Z,28.10
2022-09-24T16:49:13.135Z,28.10
2022-09-24T16:51:41.268Z,28.00
2022-09-24T16:54:09.804Z,28.00
2022-09-24T16:56:38.635Z,27.90
2022-09-24T16:59:06.721Z,27.70
2022-09-24T17:01:34.778Z,27.70
2022-09-24T17:04:07.430Z,27.50
2022-09-24T17:06:40.282Z,27.30
2022-09-24T17:09:26.189Z,26.80
2022-09-24T17:11:54.251Z,26.70
2022-09-24T17:14:22.568Z,26.30
2022-09-24T17:16:50.912Z,26.00
2022-09-24T17:19:21.891Z,26.30
2022-09-24T17:21:52.068Z,26.50
2022-09-24T17:24:22.665Z,26.50
2022-09-24T17:26:55.455Z,26.50
2022-09-24T17:29:30.461Z,26.60
2022-09-24T17:31:59.526Z,26.30
2022-09-24T17:34:28.047Z,26.00
2022-09-24T17:36:59.658Z,25.60
2022-09-24T17:39:30.632Z,25.70
2022-09-24T17:41:58.743Z,25.80
2022-09-24T17:44:26.766Z,25.40
2022-09-24T17:46:54.939Z,25.50
2022-09-24T17:49:23.014Z,25.80
2022-09-24T17:51:51.067Z,25.50
2022-09-24T17:54:23.249Z,25.90
2022-09-24T17:56:51.268Z,26.00
2022-09-24T17:59:24.198Z,26.00
2022-09-24T18:01:53.849Z,26.20
2022-09-24T18:04:22.490Z,26.20
2022-09-24T18:06:50.954Z,26.20
2022-09-24T18:09:21.933Z,26.00
2022-09-24T18:11:52.358Z,26.10
2022-09-24T18:14:22.152Z,26.30
2022-09-24T18:16:50.997Z,26.10
2022-09-24T18:19:19.432Z,25.90
2022-09-24T18:21:49.117Z,26.00
2022-09-24T18:24:17.369Z,26.00
2022-09-24T18:26:51.295Z,25.60
2022-09-24T18:29:21.423Z,25.70
2022-09-24T18:31:51.288Z,25.70
2022-09-24T18:34:19.492Z,25.50
2022-09-24T18:36:47.551Z,25.10
2022-09-24T18:39:21.689Z,24.70
2022-09-24T18:41:53.686Z,24.70
2022-09-24T18:44:21.785Z,24.60
2022-09-24T18:46:50.867Z,24.10
2022-09-24T18:49:22.234Z,24.30
2022-09-24T18:51:51.009Z,24.10
2022-09-24T18:54:19.157Z,23.90
2022-09-24T18:56:47.510Z,23.80
2022-09-24T18:59:19.067Z,24.10
2022-09-24T19:01:49.877Z,24.00
2022-09-24T19:04:18.834Z,23.80
2022-09-24T19:06:50.526Z,23.70
2022-09-24T19:09:20.136Z,23.80
2022-09-24T19:11:49.947Z,24.00
2022-09-24T19:14:19.308Z,24.40
2022-09-24T19:16:48.103Z,24.30
2022-09-24T19:19:16.563Z,24.10
2022-09-24T19:21:44.958Z,24.40
2022-09-24T19:24:13.073Z,24.20
2022-09-24T19:26:41.223Z,24.20
2022-09-24T19:29:09.358Z,24.10
2022-09-24T19:31:40.835Z,23.70
2022-09-24T19:34:11.832Z,23.80
2022-09-24T19:36:43.774Z,24.30
2022-09-24T19:39:14.335Z,24.40
2022-09-24T19:41:42.765Z,24.00
2022-09-24T19:44:11.416Z,24.20
2022-09-24T19:46:41.440Z,24.30
2022-09-24T19:49:09.661Z,23.90
2022-09-24T19:51:38.220Z,24.60
2022-09-24T19:54:08.156Z,24.00
2022-09-24T19:56:36.817Z,24.20
2022-09-24T19:59:05.504Z,24.40
2022-09-24T20:01:34.969Z,24.40
2022-09-24T20:04:07.248Z,24.60
2022-09-24T20:06:39.390Z,24.50
2022-09-24T20:09:07.845Z,24.60
2022-09-24T20:11:36.338Z,24.20
2022-09-24T20:14:05.929Z,24.40
2022-09-24T20:16:34.250Z,24.60
2022-09-24T20:19:07.330Z,24.50
2022-09-24T20:21:36.826Z,24.70
2022-09-24T20:24:06.687Z,24.80
2022-09-24T20:26:53.201Z,24.90
2022-09-24T20:29:22.897Z,25.00
2022-09-24T20:31:53.378Z,24.90
2022-09-24T20:34:24.950Z,24.70
2022-09-24T20:36:53.204Z,24.60
2022-09-24T20:39:22.216Z,24.70
2022-09-24T20:41:50.309Z,24.70
2022-09-24T20:44:18.833Z,25.00
2022-09-24T20:46:47.089Z,24.60
2022-09-24T20:49:19.598Z,24.70
2022-09-24T20:51:54.101Z,24.60
2022-09-24T20:54:24.534Z,24.80
2022-09-24T20:56:52.555Z,24.90
2022-09-24T20:59:20.830Z,25.10
2022-09-24T21:01:49.344Z,25.10
2022-09-24T21:04:19.863Z,25.20
2022-09-24T21:06:49.628Z,25.30
2022-09-24T21:09:18.436Z,25.40
2022-09-24T21:11:46.583Z,25.10
2022-09-24T21:14:14.788Z,25.10
2022-09-24T21:16:45.920Z,24.70
2022-09-24T21:19:15.794Z,24.60
2022-09-24T21:21:43.824Z,24.60
2022-09-24T21:24:15.071Z,24.20
2022-09-24T21:26:44.833Z,24.20
2022-09-24T21:29:17.340Z,24.10
2022-09-24T21:31:47.074Z,24.10
2022-09-24T21:34:16.289Z,24.20
2022-09-24T21:36:45.699Z,24.40
2022-09-24T21:39:17.507Z,24.20
2022-09-24T21:41:48.102Z,24.40
2022-09-24T21:44:17.598Z,24.40
2022-09-24T21:46:46.299Z,24.60
2022-09-24T21:49:14.315Z,24.80
2022-09-24T21:51:43.390Z,24.80
2022-09-24T21:54:16.937Z,24.70
2022-09-24T21:56:46.067Z,24.40
2022-09-24T21:59:32.020Z,24.60
2022-09-24T22:02:00.506Z,24.60
2022-09-24T22:04:29.480Z,24.70
2022-09-24T22:06:57.606Z,24.70
2022-09-24T22:09:26.994Z,24.80
2022-09-24T22:11:55.829Z,24.70
2022-09-24T22:14:24.050Z,24.50
2022-09-24T22:16:52.183Z,24.30
2022-09-24T22:19:20.593Z,24.00
2022-09-24T22:21:48.591Z,23.80
2022-09-24T22:24:17.287Z,23.70
2022-09-24T22:26:47.038Z,23.90
2022-09-24T22:29:15.079Z,23.20
2022-09-24T22:31:43.086Z,23.40
2022-09-24T22:34:28.561Z,23.10
2022-09-24T22:36:58.810Z,22.80
2022-09-24T22:39:27.084Z,23.20
2022-09-24T22:41:56.435Z,23.50
2022-09-24T22:44:24.429Z,23.90
2022-09-24T22:46:52.443Z,24.20
2022-09-24T22:49:20.559Z,24.40
2022-09-24T22:51:48.679Z,24.50
2022-09-24T22:54:16.727Z,24.50
2022-09-24T22:56:44.746Z,24.50
2022-09-24T22:59:14.118Z,24.40
2022-09-24T23:01:44.090Z,24.30
2022-09-24T23:04:14.784Z,24.40
2022-09-24T23:06:43.480Z,24.60
2022-09-24T23:09:11.892Z,24.80
2022-09-24T23:11:40.148Z,24.50
2022-09-24T23:14:12.498Z,24.40
2022-09-24T23:16:43.622Z,24.40
2022-09-24T23:19:15.142Z,24.00
2022-09-24T23:21:43.298Z,24.20
2022-09-24T23:24:15.417Z,24.30
2022-09-24T23:26:43.421Z,24.40
2022-09-24T23:29:12.447Z,24.50
2022-09-24T23:31:42.126Z,24.50
2022-09-24T23:34:12.679Z,24.40
2022-09-24T23:36:40.923Z,24.60
2022-09-24T23:39:08.973Z,24.40
2022-09-24T23:41:37.163Z,24.50
2022-09-24T23:44:05.248Z,24.30
2022-09-24T23:46:34.206Z,24.30
2022-09-24T23:49:03.777Z,24.30
2022-09-24T23:51:31.813Z,24.30
2022-09-24T23:54:00.007Z,24.40
2022-09-24T23:56:28.356Z,24.00
2022-09-24T23:58:58.665Z,24.10
